Terminal Aerodrome Forecast
Issued by NWS Wilmington, OH

Current Version | Previous Version | Graphics & Text | Print | Product List | Glossary On
Versions: 1 2 3 4 5 6 7 8 9 10 11 12 13 14 15 16 17 18 19 20
000
FTUS41 KILN 011730
TAFILN
TAF
KILN 011730Z 0118/0218 21005KT P6SM VCTS BKN040CB
     FM020100 VRB03KT P6SM FEW050
     FM020800 VRB03KT 3SM BR VCSH BKN040
     FM021400 26005KT P6SM BKN050=

USA.gov is the U.S. government's official web portal to all federal, state and local government web resources and services.